createdAt,value
2018-11-12T00:00:48.129Z,3.86
2018-11-12T00:01:48.124Z,3.86
2018-11-12T00:02:48.115Z,3.73
2018-11-12T00:03:48.095Z,3.72
2018-11-12T00:04:48.090Z,3.75
2018-11-12T00:05:48.075Z,3.84
2018-11-12T00:06:48.092Z,3.73
2018-11-12T00:07:48.063Z,3.69
2018-11-12T00:08:48.052Z,3.68
2018-11-12T00:09:48.038Z,3.68
2018-11-12T00:10:48.021Z,3.52
2018-11-12T00:11:48.029Z,3.60
2018-11-12T00:12:47.995Z,3.61
2018-11-12T00:13:47.996Z,3.58
2018-11-12T00:14:47.975Z,3.55
2018-11-12T00:15:47.963Z,3.65
2018-11-12T00:16:47.950Z,3.54
2018-11-12T00:17:47.956Z,3.48
2018-11-12T00:18:47.937Z,3.60
2018-11-12T00:19:47.925Z,3.55
2018-11-12T00:20:47.905Z,3.58
2018-11-12T00:21:47.992Z,3.51
2018-11-12T00:22:47.895Z,3.60
2018-11-12T00:23:47.873Z,3.57
2018-11-12T00:24:47.873Z,3.54
2018-11-12T00:25:47.862Z,3.55
2018-11-12T00:26:47.837Z,3.52
2018-11-12T00:27:47.854Z,3.47
2018-11-12T00:28:47.836Z,3.48
2018-11-12T00:29:47.807Z,3.48
2018-11-12T00:30:47.796Z,3.48
2018-11-12T00:31:47.797Z,3.51
2018-11-12T00:32:47.810Z,3.52
2018-11-12T00:33:47.772Z,3.54
2018-11-12T00:34:47.760Z,3.54
2018-11-12T00:35:47.746Z,3.52
2018-11-12T00:36:47.733Z,3.48
2018-11-12T00:37:47.738Z,3.35
2018-11-12T00:38:47.707Z,3.35
2018-11-12T00:39:47.698Z,3.35
2018-11-12T00:40:47.682Z,3.45
2018-11-12T00:41:47.671Z,3.50
2018-11-12T00:42:47.680Z,3.51
2018-11-12T00:43:47.671Z,3.57
2018-11-12T00:44:47.658Z,3.51
2018-11-12T00:45:47.644Z,3.51
2018-11-12T00:46:47.615Z,3.57
2018-11-12T00:47:47.614Z,3.54
2018-11-12T00:48:47.610Z,3.54
2018-11-12T00:49:47.583Z,3.52
2018-11-12T00:50:47.583Z,3.57
2018-11-12T00:51:47.563Z,3.45
2018-11-12T00:52:47.546Z,3.50
2018-11-12T00:53:47.577Z,3.55
2018-11-12T00:54:47.552Z,3.50
2018-11-12T00:55:47.514Z,3.55
2018-11-12T00:56:47.504Z,3.52
2018-11-12T00:57:47.504Z,3.52
2018-11-12T00:58:47.508Z,3.58
2018-11-12T00:59:47.509Z,3.65
2018-11-12T01:00:47.479Z,3.55
2018-11-12T01:01:47.482Z,3.52
2018-11-12T01:02:47.446Z,3.58
2018-11-12T01:03:47.446Z,3.55
2018-11-12T01:04:47.457Z,3.51
2018-11-12T01:05:47.411Z,3.48
2018-11-12T01:06:47.401Z,3.48
2018-11-12T01:07:47.386Z,3.50
2018-11-12T01:08:47.369Z,3.51
2018-11-12T01:09:47.381Z,3.50
2018-11-12T01:10:47.354Z,3.48
2018-11-12T01:11:47.338Z,3.43
2018-11-12T01:12:47.326Z,3.43
2018-11-12T01:13:47.311Z,3.29
2018-11-12T01:14:47.318Z,3.35
2018-11-12T01:15:47.300Z,3.28
2018-11-12T01:16:47.290Z,3.23
2018-11-12T01:17:47.276Z,3.20
2018-11-12T01:18:47.271Z,3.17
2018-11-12T01:19:47.278Z,3.11
2018-11-12T01:20:47.245Z,3.17
2018-11-12T01:21:47.238Z,3.15
2018-11-12T01:22:47.219Z,3.06
2018-11-12T01:23:47.200Z,3.14
2018-11-12T01:24:47.194Z,3.15
2018-11-12T01:25:47.190Z,3.17
2018-11-12T01:26:47.167Z,3.17
2018-11-12T01:27:47.160Z,3.15
2018-11-12T01:28:47.151Z,3.18
2018-11-12T01:29:47.135Z,3.21
2018-11-12T01:30:47.188Z,3.18
2018-11-12T01:31:47.145Z,3.20
2018-11-12T01:32:47.107Z,3.24
2018-11-12T01:33:47.097Z,3.20
2018-11-12T01:34:47.090Z,3.20
2018-11-12T01:35:47.072Z,3.17
2018-11-12T01:36:47.063Z,3.20
2018-11-12T01:37:47.041Z,3.17
2018-11-12T01:38:47.036Z,3.14
2018-11-12T01:39:47.028Z,3.21
2018-11-12T01:40:47.011Z,3.15
2018-11-12T01:41:47.035Z,3.06
2018-11-12T01:42:47.007Z,3.11
2018-11-12T01:43:46.976Z,3.03
2018-11-12T01:44:46.981Z,3.05
2018-11-12T01:45:46.960Z,3.11
2018-11-12T01:46:46.972Z,3.10
2018-11-12T01:47:46.943Z,3.00
2018-11-12T01:48:46.927Z,3.06
2018-11-12T01:49:46.911Z,2.93
2018-11-12T01:50:46.911Z,2.96
2018-11-12T01:51:46.911Z,2.95
2018-11-12T01:52:46.898Z,2.90
2018-11-12T01:53:46.876Z,2.93
2018-11-12T01:54:46.859Z,2.97
2018-11-12T01:55:46.848Z,2.92
2018-11-12T01:56:46.838Z,2.74
2018-11-12T01:57:46.833Z,2.72
2018-11-12T01:58:46.811Z,2.74
2018-11-12T01:59:46.806Z,2.64
2018-11-12T02:00:46.794Z,2.61
2018-11-12T02:01:46.905Z,2.67
2018-11-12T02:02:46.782Z,2.56
2018-11-12T02:03:46.760Z,2.57
2018-11-12T02:04:46.765Z,2.56
2018-11-12T02:05:46.737Z,2.61
2018-11-12T02:06:46.732Z,2.66
2018-11-12T02:07:46.748Z,2.64
2018-11-12T02:08:46.727Z,2.67
2018-11-12T02:09:46.690Z,2.71
2018-11-12T02:10:46.705Z,2.71
2018-11-12T02:11:46.667Z,2.72
2018-11-12T02:12:46.666Z,2.61
2018-11-12T02:13:46.657Z,2.72
2018-11-12T02:14:46.646Z,2.66
2018-11-12T02:15:46.635Z,2.59
2018-11-12T02:16:46.620Z,2.60
2018-11-12T02:17:46.599Z,2.57
2018-11-12T02:18:46.597Z,2.61
2018-11-12T02:19:46.579Z,2.69
2018-11-12T02:20:46.575Z,2.60
2018-11-12T02:21:46.561Z,2.66
2018-11-12T02:22:46.592Z,2.67
2018-11-12T02:23:46.554Z,2.71
2018-11-12T02:24:46.541Z,2.67
2018-11-12T02:25:46.510Z,2.67
2018-11-12T02:26:46.503Z,2.64
2018-11-12T02:27:46.500Z,2.71
2018-11-12T02:28:46.496Z,2.93
2018-11-12T02:29:46.470Z,2.82
2018-11-12T02:30:46.454Z,2.87
2018-11-12T02:31:46.443Z,2.90
2018-11-12T02:32:46.433Z,2.90
2018-11-12T02:33:46.423Z,2.90
2018-11-12T02:34:46.428Z,2.97
2018-11-12T02:35:46.399Z,2.99
2018-11-12T02:36:46.404Z,3.05
2018-11-12T02:37:46.414Z,3.10
2018-11-12T02:38:46.389Z,3.14
2018-11-12T02:39:46.389Z,3.06
2018-11-12T02:40:46.363Z,3.02
2018-11-12T02:41:46.333Z,3.10
2018-11-12T02:42:46.346Z,3.08
2018-11-12T02:43:46.327Z,3.03
2018-11-12T02:44:46.324Z,3.11
2018-11-12T02:45:46.288Z,3.13
2018-11-12T02:46:46.286Z,3.05
2018-11-12T02:47:46.300Z,3.21
2018-11-12T02:48:46.254Z,3.24
2018-11-12T02:49:46.246Z,3.31
2018-11-12T02:50:46.267Z,3.28
2018-11-12T02:51:46.221Z,3.32
2018-11-12T02:52:46.212Z,3.39
2018-11-12T02:53:46.196Z,3.40
2018-11-12T02:54:46.187Z,3.40
2018-11-12T02:55:46.212Z,3.40
2018-11-12T02:56:46.173Z,3.45
2018-11-12T02:57:46.168Z,3.36
2018-11-12T02:58:46.149Z,3.31
2018-11-12T02:59:46.138Z,3.48
2018-11-12T03:00:46.165Z,3.47
2018-11-12T03:01:46.114Z,3.51
2018-11-12T03:02:46.122Z,3.50
2018-11-12T03:03:46.102Z,3.47
2018-11-12T03:04:46.090Z,3.48
2018-11-12T03:05:46.065Z,3.54
2018-11-12T03:06:46.071Z,3.60
2018-11-12T03:07:46.128Z,3.52
2018-11-12T03:08:46.056Z,3.57
2018-11-12T03:09:46.033Z,3.52
2018-11-12T03:10:46.017Z,3.61
2018-11-12T03:11:46.015Z,3.61
2018-11-12T03:12:45.988Z,3.52
2018-11-12T03:13:45.981Z,3.55
2018-11-12T03:14:45.976Z,3.52
2018-11-12T03:15:45.955Z,3.55
2018-11-12T03:16:45.963Z,3.55
2018-11-12T03:17:45.941Z,3.45
2018-11-12T03:18:45.927Z,3.60
2018-11-12T03:19:45.937Z,3.55
2018-11-12T03:20:45.911Z,3.55
2018-11-12T03:21:45.902Z,3.50
2018-11-12T03:22:45.926Z,3.61
2018-11-12T03:23:45.872Z,3.54
2018-11-12T03:24:45.862Z,3.60
2018-11-12T03:25:45.855Z,3.48
2018-11-12T03:26:45.847Z,3.48
2018-11-12T03:27:45.907Z,3.48
2018-11-12T03:28:45.815Z,3.51
2018-11-12T03:29:45.812Z,3.54
2018-11-12T03:30:45.795Z,3.55
2018-11-12T03:31:45.807Z,3.54
2018-11-12T03:32:45.793Z,3.54
2018-11-12T03:33:45.756Z,3.62
2018-11-12T03:34:45.755Z,3.60
2018-11-12T03:35:45.733Z,3.52
2018-11-12T03:36:45.721Z,3.52
2018-11-12T03:37:45.736Z,3.45
2018-11-12T03:38:45.701Z,3.43
2018-11-12T03:39:45.760Z,3.45
2018-11-12T03:40:45.683Z,3.33
2018-11-12T03:41:45.669Z,3.36
2018-11-12T03:42:45.661Z,3.42
2018-11-12T03:43:45.656Z,3.52
2018-11-12T03:44:45.633Z,3.54
2018-11-12T03:45:45.643Z,3.52
2018-11-12T03:46:45.618Z,3.48
2018-11-12T03:47:45.630Z,3.58
2018-11-12T03:48:45.624Z,3.55
2018-11-12T03:49:45.579Z,3.57
2018-11-12T03:50:45.564Z,3.54
2018-11-12T03:51:45.573Z,3.58
2018-11-12T03:52:45.544Z,3.58
2018-11-12T03:53:45.568Z,3.45
2018-11-12T03:54:45.567Z,3.51
2018-11-12T03:55:45.523Z,3.50
2018-11-12T03:56:45.499Z,3.52
2018-11-12T03:57:45.495Z,3.60
2018-11-12T03:58:45.506Z,3.51
2018-11-12T03:59:45.477Z,3.51
2018-11-12T04:00:45.454Z,3.52
2018-11-12T04:01:45.440Z,3.52
2018-11-12T04:02:45.437Z,3.57
2018-11-12T04:03:45.420Z,3.51
2018-11-12T04:04:45.429Z,3.60
2018-11-12T04:05:45.407Z,3.54
2018-11-12T04:06:45.387Z,3.70
2018-11-12T04:07:45.382Z,3.70
2018-11-12T04:08:45.380Z,3.73
2018-11-12T04:09:45.363Z,3.75
2018-11-12T04:10:45.364Z,3.86
2018-11-12T04:11:45.337Z,3.84
2018-11-12T04:12:45.321Z,3.86
2018-11-12T04:13:45.313Z,3.90
2018-11-12T04:14:45.316Z,3.86
2018-11-12T04:15:45.295Z,3.90
2018-11-12T04:16:45.281Z,3.90
2018-11-12T04:17:45.269Z,3.94
2018-11-12T04:18:45.260Z,3.90
2018-11-12T04:19:45.243Z,3.96
2018-11-12T04:20:45.247Z,3.93
2018-11-12T04:21:45.225Z,3.94
2018-11-12T04:22:45.210Z,4.04
2018-11-12T04:23:45.206Z,3.98
2018-11-12T04:24:45.194Z,4.00
2018-11-12T04:25:45.190Z,4.06
2018-11-12T04:26:45.159Z,4.04
2018-11-12T04:27:45.151Z,3.98
2018-11-12T04:28:45.168Z,3.98
2018-11-12T04:29:45.150Z,4.04
2018-11-12T04:30:45.180Z,4.04
2018-11-12T04:31:45.140Z,4.00
2018-11-12T04:32:45.091Z,4.11
2018-11-12T04:33:45.092Z,4.15
2018-11-12T04:34:45.081Z,4.11
2018-11-12T04:35:45.059Z,4.08
2018-11-12T04:36:45.063Z,4.09
2018-11-12T04:37:45.044Z,4.24
2018-11-12T04:38:45.037Z,4.20
2018-11-12T04:39:45.015Z,4.18
2018-11-12T04:40:45.011Z,4.20
2018-11-12T04:41:45.004Z,4.22
2018-11-12T04:42:44.987Z,4.20
2018-11-12T04:43:44.975Z,4.23
2018-11-12T04:44:44.957Z,4.22
2018-11-12T04:45:45.020Z,4.18
2018-11-12T04:46:44.960Z,4.20
2018-11-12T04:47:44.966Z,4.23
2018-11-12T04:48:44.918Z,4.20
2018-11-12T04:49:44.907Z,4.16
2018-11-12T04:50:44.897Z,4.11
2018-11-12T04:51:44.890Z,4.05
2018-11-12T04:52:44.891Z,4.18
2018-11-12T04:53:44.954Z,4.14
2018-11-12T04:54:44.850Z,4.08
2018-11-12T04:55:44.836Z,4.14
2018-11-12T04:56:44.839Z,4.18
2018-11-12T04:57:44.833Z,4.18
2018-11-12T04:58:44.806Z,4.18
2018-11-12T04:59:44.791Z,4.18
2018-11-12T05:00:44.795Z,4.20
2018-11-12T05:01:44.827Z,4.29
2018-11-12T05:02:44.778Z,4.27
2018-11-12T05:03:44.746Z,4.29
2018-11-12T05:04:44.740Z,4.26
2018-11-12T05:05:44.727Z,4.29
2018-11-12T05:06:44.721Z,4.24
2018-11-12T05:07:51.793Z,4.29
2018-11-12T05:08:44.690Z,4.36
2018-11-12T05:09:44.682Z,4.29
2018-11-12T05:10:44.672Z,4.34
2018-11-12T05:11:44.662Z,4.29
2018-11-12T05:12:44.659Z,4.24
2018-11-12T05:13:44.660Z,4.30
2018-11-12T05:14:44.627Z,4.14
2018-11-12T05:15:44.611Z,4.20
2018-11-12T05:16:44.646Z,4.18
2018-11-12T05:17:44.589Z,4.22
2018-11-12T05:18:44.586Z,4.22
2018-11-12T05:19:44.569Z,4.22
2018-11-12T05:20:44.556Z,4.12
2018-11-12T05:21:44.562Z,4.22
2018-11-12T05:22:44.538Z,4.11
2018-11-12T05:23:44.562Z,4.24
2018-11-12T05:24:44.522Z,4.22
2018-11-12T05:25:44.499Z,4.16
2018-11-12T05:26:44.489Z,4.20
2018-11-12T05:27:44.483Z,4.06
2018-11-12T05:28:44.471Z,4.04
2018-11-12T05:29:44.469Z,4.02
2018-11-12T05:30:44.452Z,4.09
2018-11-12T05:31:44.439Z,4.02
2018-11-12T05:32:44.424Z,4.00
2018-11-12T05:33:44.414Z,4.06
2018-11-12T05:34:44.406Z,3.97
2018-11-12T05:35:44.386Z,4.06
2018-11-12T05:36:44.377Z,4.05
2018-11-12T05:37:51.529Z,3.98
2018-11-12T05:38:44.356Z,3.97
2018-11-12T05:39:44.357Z,4.00
2018-11-12T05:40:44.332Z,3.98
2018-11-12T05:41:44.321Z,3.98
2018-11-12T05:42:51.400Z,3.97
2018-11-12T05:43:44.303Z,4.02
2018-11-12T05:44:44.319Z,3.98
2018-11-12T05:45:44.286Z,4.02
2018-11-12T05:46:44.272Z,3.88
2018-11-12T05:47:44.256Z,3.93
2018-11-12T05:48:44.245Z,3.80
2018-11-12T05:49:44.231Z,3.73
2018-11-12T05:50:44.235Z,3.72
2018-11-12T05:51:44.274Z,3.76
2018-11-12T05:52:44.205Z,3.80
2018-11-12T05:53:44.195Z,3.83
2018-11-12T05:54:44.176Z,3.72
2018-11-12T05:55:44.185Z,3.73
2018-11-12T05:56:44.152Z,3.72
2018-11-12T05:57:44.145Z,3.80
2018-11-12T05:58:44.191Z,3.60
2018-11-12T05:59:44.127Z,3.73
2018-11-12T06:00:44.125Z,3.68
2018-11-12T06:01:44.110Z,3.66
2018-11-12T06:02:44.089Z,3.72
2018-11-12T06:03:44.078Z,3.73
2018-11-12T06:04:44.156Z,3.65
2018-11-12T06:05:44.052Z,3.72
2018-11-12T06:06:44.057Z,3.72
2018-11-12T06:07:44.034Z,3.72
2018-11-12T06:08:44.020Z,3.66
2018-11-12T06:09:44.010Z,3.65
2018-11-12T06:10:44.001Z,3.69
2018-11-12T06:11:43.999Z,3.66
2018-11-12T06:12:43.977Z,3.61
2018-11-12T06:13:43.961Z,3.58
2018-11-12T06:14:43.962Z,3.54
2018-11-12T06:15:43.943Z,3.55
2018-11-12T06:16:43.934Z,3.55
2018-11-12T06:17:43.931Z,3.50
2018-11-12T06:18:43.909Z,3.57
2018-11-12T06:19:43.900Z,3.66
2018-11-12T06:20:43.908Z,3.52
2018-11-12T06:21:50.925Z,3.58
2018-11-12T06:22:43.926Z,3.54
2018-11-12T06:23:43.864Z,3.62
2018-11-12T06:24:43.846Z,3.61
2018-11-12T06:25:43.835Z,3.55
2018-11-12T06:26:43.820Z,3.61
2018-11-12T06:27:43.841Z,3.60
2018-11-12T06:28:43.800Z,3.54
2018-11-12T06:29:43.790Z,3.58
2018-11-12T06:30:43.772Z,3.60
2018-11-12T06:31:43.764Z,3.54
2018-11-12T06:32:43.757Z,3.57
2018-11-12T06:33:43.746Z,3.55
2018-11-12T06:34:43.729Z,3.58
2018-11-12T06:35:43.720Z,3.47
2018-11-12T06:36:43.782Z,3.52
2018-11-12T06:37:43.704Z,3.50
2018-11-12T06:38:43.690Z,3.43
2018-11-12T06:39:43.674Z,3.48
2018-11-12T06:40:43.662Z,3.48
2018-11-12T06:41:43.654Z,3.47
2018-11-12T06:42:43.797Z,3.51
2018-11-12T06:43:43.649Z,3.50
2018-11-12T06:44:43.617Z,3.47
2018-11-12T06:45:43.608Z,3.52
2018-11-12T06:46:43.597Z,3.48
2018-11-12T06:47:43.588Z,3.47
2018-11-12T06:48:43.584Z,3.48
2018-11-12T06:49:43.565Z,3.48
2018-11-12T06:50:43.559Z,3.45
2018-11-12T06:51:43.540Z,3.48
2018-11-12T06:52:43.588Z,3.40
2018-11-12T06:53:43.522Z,3.39
2018-11-12T06:54:43.513Z,3.39
2018-11-12T06:55:43.501Z,3.35
2018-11-12T06:56:43.489Z,3.42
2018-11-12T06:57:43.472Z,3.47
2018-11-12T06:58:43.470Z,3.29
2018-11-12T06:59:43.456Z,3.47
2018-11-12T07:00:43.489Z,3.47
2018-11-12T07:01:43.436Z,3.51
2018-11-12T07:02:43.427Z,3.47
2018-11-12T07:03:43.405Z,3.55
2018-11-12T07:04:43.423Z,3.54
2018-11-12T07:05:43.403Z,3.50
2018-11-12T07:06:43.393Z,3.62
2018-11-12T07:07:43.365Z,3.58
2018-11-12T07:08:43.352Z,3.51
2018-11-12T07:09:43.336Z,3.61
2018-11-12T07:10:43.349Z,3.62
2018-11-12T07:11:43.340Z,3.52
2018-11-12T07:12:43.312Z,3.58
2018-11-12T07:13:43.304Z,3.69
2018-11-12T07:14:43.282Z,3.68
2018-11-12T07:15:43.284Z,3.66
2018-11-12T07:16:43.266Z,3.70
2018-11-12T07:17:43.274Z,3.69
2018-11-12T07:18:43.445Z,3.66
2018-11-12T07:19:43.225Z,3.72
2018-11-12T07:20:43.240Z,3.78
2018-11-12T07:21:43.214Z,3.69
2018-11-12T07:22:43.195Z,3.62
2018-11-12T07:23:43.184Z,3.75
2018-11-12T07:24:43.170Z,3.80
2018-11-12T07:25:43.159Z,3.76
2018-11-12T07:26:43.158Z,3.83
2018-11-12T07:27:43.136Z,3.78
2018-11-12T07:28:43.125Z,3.80
2018-11-12T07:29:43.115Z,3.84
2018-11-12T07:30:43.114Z,3.84
2018-11-12T07:31:43.100Z,3.80
2018-11-12T07:32:43.081Z,3.86
2018-11-12T07:33:43.071Z,3.83
2018-11-12T07:34:43.077Z,3.79
2018-11-12T07:35:43.047Z,3.83
2018-11-12T07:36:43.054Z,3.90
2018-11-12T07:37:43.022Z,3.98
2018-11-12T07:38:43.013Z,4.00
2018-11-12T07:39:43.005Z,4.05
2018-11-12T07:40:42.993Z,4.08
2018-11-12T07:41:42.979Z,4.06
2018-11-12T07:42:42.985Z,4.09
2018-11-12T07:43:42.959Z,4.22
2018-11-12T07:44:42.949Z,4.15
2018-11-12T07:45:42.945Z,4.27
2018-11-12T07:46:42.930Z,4.33
2018-11-12T07:47:42.973Z,4.36
2018-11-12T07:48:43.007Z,4.48
2018-11-12T07:49:42.898Z,4.41
2018-11-12T07:50:42.881Z,4.47
2018-11-12T07:51:49.909Z,4.48
2018-11-12T07:52:50.010Z,4.47
2018-11-12T07:53:42.900Z,4.40
2018-11-12T07:54:42.852Z,4.52
2018-11-12T07:55:42.821Z,4.52
2018-11-12T07:56:42.816Z,4.54
2018-11-12T07:57:42.808Z,4.58
2018-11-12T07:58:42.800Z,4.59
2018-11-12T07:59:42.776Z,4.70
2018-11-12T08:00:42.767Z,4.70
2018-11-12T08:01:42.752Z,4.78
2018-11-12T08:02:42.765Z,4.80
2018-11-12T08:03:42.846Z,4.80
2018-11-12T08:04:42.744Z,4.89
2018-11-12T08:05:42.710Z,4.97
2018-11-12T08:06:42.699Z,4.96
2018-11-12T08:07:42.695Z,4.88
2018-11-12T08:08:42.702Z,4.96
2018-11-12T08:09:42.740Z,4.94
2018-11-12T08:10:42.689Z,4.96
2018-11-12T08:11:42.671Z,5.03
2018-11-12T08:12:42.632Z,5.09
2018-11-12T08:13:42.620Z,5.10
2018-11-12T08:14:42.828Z,5.10
2018-11-12T08:15:42.601Z,5.15
2018-11-12T08:16:42.595Z,5.18
2018-11-12T08:17:42.651Z,5.28
2018-11-12T08:18:42.618Z,5.31
2018-11-12T08:19:42.558Z,5.33
2018-11-12T08:20:42.560Z,5.38
2018-11-12T08:21:42.608Z,5.43
2018-11-12T08:22:42.525Z,5.39
2018-11-12T08:23:42.508Z,5.53
2018-11-12T08:24:42.566Z,5.58
2018-11-12T08:25:42.513Z,5.60
2018-11-12T08:26:42.517Z,5.65
2018-11-12T08:27:42.465Z,5.74
2018-11-12T08:28:42.460Z,5.75
2018-11-12T08:29:42.571Z,5.75
2018-11-12T08:30:42.431Z,5.79
2018-11-12T08:31:50.046Z,5.85
2018-11-12T08:32:42.411Z,5.91
2018-11-12T08:33:42.398Z,5.86
2018-11-12T08:34:42.387Z,5.90
2018-11-12T08:35:42.399Z,5.91
2018-11-12T08:36:42.445Z,5.91
2018-11-12T08:37:42.357Z,6.04
2018-11-12T08:38:42.344Z,6.04
2018-11-12T08:39:42.587Z,5.99
2018-11-12T08:40:42.472Z,6.12
2018-11-12T08:41:42.305Z,6.12
2018-11-12T08:42:42.313Z,6.15
2018-11-12T08:43:42.288Z,6.14
2018-11-12T08:44:42.272Z,6.25
2018-11-12T08:45:42.264Z,6.33
2018-11-12T08:46:42.257Z,6.30
2018-11-12T08:47:42.262Z,6.30
2018-11-12T08:48:42.271Z,6.30
2018-11-12T08:49:42.308Z,6.33
2018-11-12T08:50:42.213Z,6.40
2018-11-12T08:51:42.196Z,6.41
2018-11-12T08:52:42.186Z,6.40
2018-11-12T08:53:42.179Z,6.38
2018-11-12T08:54:42.468Z,6.46
2018-11-12T08:55:42.209Z,6.38
2018-11-12T08:56:42.136Z,6.38
2018-11-12T08:57:42.135Z,6.49
2018-11-12T08:58:42.164Z,6.41
2018-11-12T08:59:42.221Z,6.40
2018-11-12T09:00:42.174Z,6.49
2018-11-12T09:01:42.094Z,6.59
2018-11-12T09:02:42.071Z,6.52
2018-11-12T09:03:42.104Z,6.59
2018-11-12T09:04:42.047Z,6.67
2018-11-12T09:05:42.104Z,6.71
2018-11-12T09:06:42.030Z,6.71
2018-11-12T09:07:42.017Z,6.74
2018-11-12T09:08:42.002Z,6.77
2018-11-12T09:09:42.013Z,6.80
2018-11-12T09:10:41.984Z,6.87
2018-11-12T09:11:41.969Z,7.02
2018-11-12T09:12:41.960Z,7.02
2018-11-12T09:13:42.476Z,7.03
2018-11-12T09:14:41.953Z,7.07
2018-11-12T09:15:42.024Z,7.12
2018-11-12T09:16:41.987Z,7.28
2018-11-12T09:17:41.930Z,7.23
2018-11-12T09:18:41.895Z,7.27
2018-11-12T09:19:41.916Z,7.40
2018-11-12T09:20:41.877Z,7.35
2018-11-12T09:21:41.860Z,7.37
2018-11-12T09:22:41.848Z,7.50
2018-11-12T09:23:41.848Z,7.49
2018-11-12T09:24:41.828Z,7.55
2018-11-12T09:25:41.839Z,7.50
2018-11-12T09:26:41.801Z,7.61
2018-11-12T09:27:41.826Z,7.61
2018-11-12T09:28:41.782Z,7.58
2018-11-12T09:29:41.876Z,7.55
2018-11-12T09:30:43.031Z,7.55
2018-11-12T09:31:41.755Z,7.63
2018-11-12T09:32:42.092Z,7.57
2018-11-12T09:33:41.729Z,7.68
2018-11-12T09:34:41.719Z,7.80
2018-11-12T09:35:41.722Z,7.72
2018-11-12T09:36:41.742Z,7.79
2018-11-12T09:37:41.686Z,7.77
2018-11-12T09:38:41.788Z,7.77
2018-11-12T09:39:41.669Z,7.86
2018-11-12T09:40:41.653Z,7.98
2018-11-12T09:41:41.641Z,7.97
2018-11-12T09:42:41.627Z,8.01
2018-11-12T09:43:41.635Z,8.02
2018-11-12T09:44:41.605Z,8.10
2018-11-12T09:45:41.602Z,8.11
2018-11-12T09:46:41.580Z,8.11
2018-11-12T09:47:41.596Z,8.22
2018-11-12T09:48:41.581Z,8.20
2018-11-12T09:49:41.551Z,8.22
2018-11-12T09:50:41.540Z,8.22
2018-11-12T09:51:41.526Z,8.25
2018-11-12T09:52:41.537Z,8.33
2018-11-12T09:53:41.626Z,8.41
2018-11-12T09:54:41.599Z,8.44
2018-11-12T09:55:41.586Z,8.40
2018-11-12T09:56:41.474Z,8.50
2018-11-12T09:57:41.463Z,8.58
2018-11-12T09:58:41.449Z,8.56
2018-11-12T09:59:41.450Z,8.59
2018-11-12T10:00:41.741Z,8.68
2018-11-12T10:01:42.054Z,8.70
2018-11-12T10:02:42.553Z,8.81
2018-11-12T10:03:42.616Z,8.84
2018-11-12T10:04:43.237Z,8.89
2018-11-12T10:05:42.553Z,8.87
2018-11-12T10:06:42.821Z,8.94
2018-11-12T10:07:44.118Z,8.92
2018-11-12T10:08:42.685Z,8.95
2018-11-12T10:09:44.247Z,8.92
2018-11-12T10:10:43.652Z,9.08
2018-11-12T10:11:43.552Z,9.02
2018-11-12T10:12:44.578Z,9.10
2018-11-12T10:13:43.051Z,9.10
2018-11-12T10:14:44.007Z,9.04
2018-11-12T10:15:44.646Z,9.05
2018-11-12T10:16:43.082Z,9.02
2018-11-12T10:17:43.547Z,9.02
2018-11-12T10:18:41.285Z,8.99
2018-11-12T10:19:41.262Z,9.17
2018-11-12T10:20:48.297Z,9.23
2018-11-12T10:21:41.196Z,9.28
2018-11-12T10:22:41.181Z,9.29
2018-11-12T10:23:41.189Z,9.36
2018-11-12T10:24:41.162Z,9.32
2018-11-12T10:25:41.145Z,9.31
2018-11-12T10:26:41.150Z,9.29
2018-11-12T10:27:41.122Z,9.26
2018-11-12T10:28:41.112Z,9.23
2018-11-12T10:29:41.107Z,9.21
2018-11-12T10:30:41.131Z,9.23
2018-11-12T10:31:41.086Z,9.26
2018-11-12T10:32:41.068Z,9.28
2018-11-12T10:33:48.634Z,9.23
2018-11-12T10:34:41.064Z,9.35
2018-11-12T10:35:41.049Z,9.38
2018-11-12T10:36:41.025Z,9.42
2018-11-12T10:37:41.011Z,9.36
2018-11-12T10:38:41.001Z,9.47
2018-11-12T10:39:41.062Z,9.56
2018-11-12T10:40:41.006Z,9.54
2018-11-12T10:41:40.979Z,9.58
2018-11-12T10:42:40.989Z,9.56
2018-11-12T10:43:40.976Z,9.58
2018-11-12T10:44:40.945Z,9.68
2018-11-12T10:45:40.930Z,9.74
2018-11-12T10:46:40.910Z,9.78
2018-11-12T10:47:40.919Z,9.75
2018-11-12T10:48:40.964Z,9.81
2018-11-12T10:49:40.878Z,9.78
2018-11-12T10:50:40.876Z,9.81
2018-11-12T10:51:40.864Z,9.76
2018-11-12T10:52:40.852Z,9.78
2018-11-12T10:53:49.842Z,9.79
2018-11-12T10:54:40.839Z,9.75
2018-11-12T10:55:40.913Z,9.81
2018-11-12T10:56:40.809Z,9.93
2018-11-12T10:57:40.792Z,9.94
2018-11-12T10:58:40.869Z,10.05
2018-11-12T10:59:40.840Z,10.17
2018-11-12T11:00:40.823Z,10.30
2018-11-12T11:01:40.741Z,10.29
2018-11-12T11:02:40.740Z,10.32
2018-11-12T11:03:40.728Z,10.38
2018-11-12T11:04:40.710Z,10.36
2018-11-12T11:05:40.740Z,10.48
2018-11-12T11:06:40.789Z,10.48
2018-11-12T11:07:40.701Z,10.51
2018-11-12T11:08:40.674Z,10.40
2018-11-12T11:09:40.661Z,10.52
2018-11-12T11:10:40.674Z,10.59
2018-11-12T11:11:40.638Z,10.53
2018-11-12T11:12:40.618Z,10.71
2018-11-12T11:13:40.633Z,10.74
2018-11-12T11:14:40.656Z,10.76
2018-11-12T11:15:40.685Z,10.91
2018-11-12T11:16:40.579Z,10.78
2018-11-12T11:17:40.568Z,10.82
2018-11-12T11:18:40.550Z,10.86
2018-11-12T11:19:40.575Z,10.85
2018-11-12T11:20:40.562Z,10.82
2018-11-12T11:21:40.513Z,10.96
2018-11-12T11:22:40.507Z,10.91
2018-11-12T11:23:40.492Z,10.86
2018-11-12T11:24:40.497Z,10.96
2018-11-12T11:25:40.551Z,10.96
2018-11-12T11:26:40.574Z,11.02
2018-11-12T11:27:40.463Z,11.07
2018-11-12T11:28:40.480Z,11.07
2018-11-12T11:29:40.427Z,11.06
2018-11-12T11:30:40.427Z,11.24
2018-11-12T11:31:40.466Z,11.18
2018-11-12T11:32:40.396Z,11.32
2018-11-12T11:33:40.385Z,11.42
2018-11-12T11:34:40.377Z,11.49
2018-11-12T11:35:40.399Z,11.65
2018-11-12T11:36:40.356Z,11.78
2018-11-12T11:37:40.338Z,11.75
2018-11-12T11:38:40.325Z,11.90
2018-11-12T11:39:40.325Z,11.95
2018-11-12T11:40:40.339Z,12.04
2018-11-12T11:41:40.295Z,12.12
2018-11-12T11:42:40.284Z,12.14
2018-11-12T11:43:40.276Z,12.16
2018-11-12T11:44:40.262Z,12.19
2018-11-12T11:45:40.246Z,12.19
2018-11-12T11:46:40.244Z,12.17
2018-11-12T11:47:40.458Z,12.07
2018-11-12T11:48:40.221Z,12.01
2018-11-12T11:49:40.204Z,12.01
2018-11-12T11:50:40.228Z,11.95
2018-11-12T11:51:40.239Z,11.96
2018-11-12T11:52:40.164Z,11.96
2018-11-12T11:53:40.158Z,11.88
2018-11-12T11:54:40.173Z,11.86
2018-11-12T11:55:40.128Z,11.86
2018-11-12T11:56:40.315Z,11.76
2018-11-12T11:57:40.305Z,11.76
2018-11-12T11:58:40.097Z,11.78
2018-11-12T11:59:40.095Z,11.80
2018-11-12T12:00:40.095Z,11.95
2018-11-12T12:01:40.126Z,11.98
2018-11-12T12:02:40.092Z,12.01
2018-11-12T12:03:40.040Z,12.02
2018-11-12T12:04:40.039Z,12.27
2018-11-12T12:05:40.027Z,12.31
2018-11-12T12:06:40.013Z,12.39
2018-11-12T12:07:39.997Z,12.39
2018-11-12T12:08:40.036Z,12.47
2018-11-12T12:09:39.987Z,12.60
2018-11-12T12:10:40.001Z,12.68
2018-11-12T12:11:39.948Z,12.65
2018-11-12T12:12:39.946Z,12.74
2018-11-12T12:13:39.933Z,12.70
2018-11-12T12:14:39.923Z,12.64
2018-11-12T12:15:39.910Z,12.50
2018-11-12T12:16:39.962Z,12.42
2018-11-12T12:17:39.986Z,12.29
2018-11-12T12:18:39.980Z,12.37
2018-11-12T12:19:39.867Z,12.37
2018-11-12T12:20:39.892Z,12.50
2018-11-12T12:21:39.849Z,12.59
2018-11-12T12:22:39.833Z,12.56
2018-11-12T12:23:39.810Z,12.56
2018-11-12T12:24:40.080Z,12.64
2018-11-12T12:25:39.963Z,12.68
2018-11-12T12:26:39.783Z,12.62
2018-11-12T12:27:39.768Z,12.64
2018-11-12T12:28:39.766Z,12.59
2018-11-12T12:29:39.744Z,12.60
2018-11-12T12:30:39.757Z,12.56
2018-11-12T12:31:39.734Z,12.59
2018-11-12T12:32:47.310Z,12.49
2018-11-12T12:33:46.737Z,12.45
2018-11-12T12:34:39.700Z,12.49
2018-11-12T12:35:46.759Z,12.47
2018-11-12T12:36:39.733Z,12.52
2018-11-12T12:37:39.698Z,12.47
2018-11-12T12:38:39.637Z,12.45
2018-11-12T12:39:39.628Z,12.46
2018-11-12T12:40:39.622Z,12.53
2018-11-12T12:41:39.608Z,12.47
2018-11-12T12:42:39.596Z,12.54
2018-11-12T12:43:39.591Z,12.50
2018-11-12T12:44:39.584Z,12.56
2018-11-12T12:45:39.838Z,12.59
2018-11-12T12:46:39.549Z,12.52
2018-11-12T12:47:39.564Z,12.60
2018-11-12T12:48:39.541Z,12.64
2018-11-12T12:49:39.572Z,12.56
2018-11-12T12:50:39.510Z,12.54
2018-11-12T12:51:39.579Z,12.59
2018-11-12T12:52:39.481Z,12.65
2018-11-12T12:53:39.479Z,12.72
2018-11-12T12:54:39.473Z,12.67
2018-11-12T12:55:39.601Z,12.67
2018-11-12T12:56:39.443Z,12.71
2018-11-12T12:57:39.441Z,12.67
2018-11-12T12:58:39.413Z,12.67
2018-11-12T12:59:39.452Z,12.64
2018-11-12T13:00:39.400Z,12.67
2018-11-12T13:01:39.500Z,12.60
2018-11-12T13:02:39.366Z,12.62
2018-11-12T13:03:39.362Z,12.67
2018-11-12T13:04:39.420Z,12.64
2018-11-12T13:05:39.350Z,12.65
2018-11-12T13:06:39.405Z,12.65
2018-11-12T13:07:39.322Z,12.59
2018-11-12T13:08:39.304Z,12.65
2018-11-12T13:09:39.292Z,12.54
2018-11-12T13:10:39.366Z,12.57
2018-11-12T13:11:39.298Z,12.59
2018-11-12T13:12:39.262Z,12.54
2018-11-12T13:13:39.254Z,12.62